Time;durP1;ratioP1;P1;durP2;ratioP2;P2;SDS_P1;SDS_P2;PMS_P1;PMS_P2;Temp;Humidity;BMP_temperature;BMP_pressure;BME280_temperature;BME280_humidity;BME280_pressure;Samples;Min_cycle;Max_cycle;Signal;HPM_P1;HPM_P2
2022/09/05 00:02:24;;;;;;;13.27;6.63;;;22.70;99.90;;;;;;5080290;28;20129;-79
2022/09/05 00:06:05;;;;;;;;;;;;;;;;;;;;;
2022/09/05 00:08:56;;;;;;;;;;;;;;;;;;;;;
2022/09/05 00:12:14;;;;;;;15.75;6.63;;;22.80;99.90;;;;;;5092714;28;20106;-79
2022/09/05 00:15:20;;;;;;;13.82;7.30;;;22.80;99.90;;;;;;5092199;28;20027;-80
2022/09/05 00:18:27;;;;;;;15.73;6.05;;;22.70;99.90;;;;;;5108471;28;20377;-80
2022/09/05 00:22:16;;;;;;;22.08;6.75;;;22.70;99.90;;;;;;5070849;28;20043;-80
2022/09/05 00:24:53;;;;;;;;;;;;;;;;;;;;;
2022/09/05 00:28:06;;;;;;;15.52;6.78;;;22.70;99.90;;;;;;5114244;28;20031;-79
2022/09/05 00:30:44;;;;;;;19.23;7.30;;;22.70;99.90;;;;;;5037925;28;20045;-79
2022/09/05 00:33:51;;;;;;;20.83;6.40;;;22.70;99.90;;;;;;5054961;28;20040;-79
2022/09/05 00:36:33;;;;;;;16.98;6.47;;;22.60;99.90;;;;;;5116614;28;20022;-79
2022/09/05 00:39:29;;;;;;;21.50;7.38;;;22.60;99.90;;;;;;5115753;28;20029;-79
2022/09/05 00:42:17;;;;;;;;;;;;;;;;;;;;;
2022/09/05 00:44:56;;;;;;;25.50;6.82;;;22.60;99.90;;;;;;5116221;28;20399;-80
2022/09/05 00:48:06;;;;;;;13.32;5.97;;;22.60;99.90;;;;;;5117590;28;20020;-79
2022/09/05 00:51:01;;;;;;;13.27;6.70;;;22.60;99.90;;;;;;5111022;28;20087;-79
2022/09/05 00:54:31;;;;;;;;;;;;;;;;;;;;;
2022/09/05 00:57:58;;;;;;;;;;;;;;;;;;;;;
2022/09/05 01:04:35;;;;;;;19.42;7.28;;;22.60;99.90;;;;;;5047885;28;20452;-79
2022/09/05 01:07:19;;;;;;;;;;;;;;;;;;;;;
2022/09/05 01:10:12;;;;;;;23.67;8.27;;;22.60;99.90;;;;;;5058725;28;20037;-79
2022/09/05 01:13:09;;;;;;;;;;;;;;;;;;;;;
2022/09/05 01:16:08;;;;;;;24.73;7.72;;;22.60;99.90;;;;;;5058815;28;20112;-80
2022/09/05 01:22:21;;;;;;;18.33;6.68;;;22.70;99.90;;;;;;5047337;28;20488;-79
2022/09/05 01:25:41;;;;;;;;;;;;;;;;;;;;;
2022/09/05 01:28:27;;;;;;;15.10;6.13;;;22.60;99.90;;;;;;5073519;28;20032;-80
2022/09/05 01:31:35;;;;;;;20.33;7.80;;;22.50;99.90;;;;;;5112500;28;20051;-80
2022/09/05 01:38:05;;;;;;;16.15;6.32;;;22.50;99.90;;;;;;5103789;28;20515;-79
2022/09/05 01:41:06;;;;;;;27.85;7.13;;;22.50;99.90;;;;;;5121566;28;20028;-79
2022/09/05 01:44:09;;;;;;;19.25;6.75;;;22.50;99.90;;;;;;5108647;28;20028;-80
2022/09/05 01:47:11;;;;;;;23.20;7.28;;;22.50;99.90;;;;;;5101886;28;20031;-78
2022/09/05 01:53:49;;;;;;;15.88;6.50;;;22.60;99.90;;;;;;5086742;28;20483;-80
2022/09/05 01:56:29;;;;;;;26.13;7.70;;;22.60;99.90;;;;;;5115169;28;20028;-80
2022/09/05 01:59:43;;;;;;;;;;;;;;;;;;;;;
2022/09/05 02:02:43;;;;;;;23.92;7.57;;;22.50;99.90;;;;;;5108696;28;20024;-79
2022/09/05 02:05:34;;;;;;;20.73;7.40;;;22.40;99.90;;;;;;5120487;28;20511;-80
2022/09/05 02:12:00;;;;;;;17.15;6.90;;;22.50;99.90;;;;;;5100912;28;20028;-80
2022/09/05 02:15:11;;;;;;;;;;;;;;;;;;;;;
2022/09/05 02:17:51;;;;;;;32.33;8.68;;;22.50;99.90;;;;;;5109032;28;20111;-80
2022/09/05 02:20:45;;;;;;;16.33;6.70;;;22.50;99.90;;;;;;5120150;28;20023;-80
2022/09/05 02:23:20;;;;;;;19.25;7.03;;;22.50;99.90;;;;;;5109792;28;20541;-79
2022/09/05 02:26:36;;;;;;;17.20;6.95;;;22.50;99.90;;;;;;5114977;28;20031;-80
2022/09/05 02:29:24;;;;;;;15.77;6.60;;;22.40;99.90;;;;;;5024082;28;20029;-81
2022/09/05 02:32:19;;;;;;;20.30;6.95;;;22.50;99.90;;;;;;5036827;28;20040;-79
2022/09/05 02:35:22;;;;;;;17.27;6.50;;;22.50;99.90;;;;;;5103723;28;20097;-78
2022/09/05 02:38:12;;;;;;;19.30;7.38;;;22.50;99.90;;;;;;5119785;28;20043;-80
2022/09/05 02:40:47;;;;;;;19.30;7.78;;;22.50;99.90;;;;;;5109416;28;20076;-79
2022/09/05 02:43:34;;;;;;;21.75;7.03;;;22.50;99.90;;;;;;5118842;28;20039;-81
2022/09/05 02:46:34;;;;;;;;;;;;;;;;;;;;;
2022/09/05 02:49:17;;;;;;;18.70;7.28;;;22.50;99.90;;;;;;5104224;28;20119;-80
2022/09/05 02:55:34;;;;;;;;;;;;;;;;;;;;;
2022/09/05 02:58:20;;;;;;;17.73;7.00;;;22.50;99.90;;;;;;5110822;28;20107;-80
2022/09/05 03:04:46;;;;;;;;;;;;;;;;;;;;;
2022/09/05 03:07:25;;;;;;;;;;;;;;;;;;;;;
2022/09/05 03:10:41;;;;;;;15.50;6.45;;;22.50;99.90;;;;;;5118765;28;20114;-80
2022/09/05 03:14:04;;;;;;;;;;;;;;;;;;;;;
2022/09/05 03:16:44;;;;;;;14.43;6.22;;;22.40;99.90;;;;;;5046371;28;20025;-80
2022/09/05 03:19:56;;;;;;;13.75;6.53;;;22.40;99.90;;;;;;5115524;28;20456;-79
2022/09/05 03:23:08;;;;;;;21.63;7.50;;;22.40;99.90;;;;;;5044075;28;20036;-80
2022/09/05 03:26:33;;;;;;;;;;;;;;;;;;;;;
2022/09/05 03:29:12;;;;;;;25.23;7.35;;;22.40;99.90;;;;;;5040621;28;20548;-80
2022/09/05 03:32:27;;;;;;;32.00;7.57;;;22.40;99.90;;;;;;5132403;27;20046;-80
2022/09/05 03:35:17;;;;;;;18.33;8.25;;;22.30;99.90;;;;;;5115034;27;20038;-79
2022/09/05 03:42:00;;;;;;;;;;;;;;;;;;;;;
2022/09/05 03:45:01;;;;;;;26.90;6.97;;;22.30;99.90;;;;;;5050270;28;20112;-80
2022/09/05 03:47:35;;;;;;;16.33;7.35;;;22.30;99.90;;;;;;5012571;28;20045;-81
2022/09/05 03:50:10;;;;;;;12.73;6.18;;;22.30;99.90;;;;;;5034891;28;20038;-79
2022/09/05 03:53:35;;;;;;;;;;;;;;;;;;;;;
2022/09/05 03:56:18;;;;;;;18.30;6.95;;;22.30;99.90;;;;;;5115843;28;20075;-79
2022/09/05 03:59:20;;;;;;;14.15;6.95;;;22.30;99.90;;;;;;5116848;28;20031;-78
2022/09/05 04:02:25;;;;;;;18.13;7.63;;;22.30;99.90;;;;;;5117680;28;20024;-80
2022/09/05 04:05:40;;;;;;;22.85;7.22;;;22.30;99.90;;;;;;5038605;28;20036;-79
2022/09/05 04:08:32;;;;;;;24.30;7.22;;;22.30;99.90;;;;;;5105629;28;20028;-80
2022/09/05 04:11:45;;;;;;;12.75;7.57;;;22.30;99.90;;;;;;5116022;28;20547;-80
2022/09/05 04:14:34;;;;;;;18.45;7.22;;;22.30;99.90;;;;;;5116287;28;20368;-80
2022/09/05 04:17:19;;;;;;;15.05;6.53;;;22.30;99.90;;;;;;5106190;28;20040;-80
2022/09/05 04:23:12;;;;;;;19.40;7.55;;;22.30;99.90;;;;;;5100100;28;20032;-80
2022/09/05 04:25:38;;;;;;;;;;;22.40;99.90;;;;;;5118099;28;20499;-77
2022/09/05 04:28:41;;;;;;;18.73;7.75;;;22.40;99.90;;;;;;5104800;27;19915;-80
2022/09/05 04:31:16;;;;;;;16.40;7.53;;;22.40;99.90;;;;;;5108629;28;20044;-80
2022/09/05 04:34:04;;;;;;;15.57;6.68;;;22.40;99.90;;;;;;5111896;28;20510;-80
2022/09/05 04:36:42;;;;;;;18.77;7.10;;;22.40;99.90;;;;;;5130834;27;20069;-80
2022/09/05 04:39:17;;;;;;;17.20;7.70;;;22.40;99.90;;;;;;5117429;28;20407;-80
2022/09/05 04:42:03;;;;;;;16.50;6.85;;;22.40;99.90;;;;;;5117822;28;20544;-79
2022/09/05 04:44:53;;;;;;;14.95;7.43;;;22.30;99.90;;;;;;5109945;28;20043;-78
2022/09/05 04:47:29;;;;;;;20.67;7.50;;;22.40;99.90;;;;;;5116025;28;20039;-80
2022/09/05 04:50:03;;;;;;;23.30;7.32;;;22.30;99.90;;;;;;5110260;28;20475;-79
2022/09/05 04:52:41;;;;;;;21.98;7.80;;;22.40;99.90;;;;;;5117342;28;20016;-78
2022/09/05 04:55:39;;;;;;;25.00;7.15;;;22.40;99.90;;;;;;5116463;28;20043;-79
2022/09/05 04:58:29;;;;;;;19.77;6.97;;;22.40;99.90;;;;;;5044900;28;20041;-80
2022/09/05 05:01:07;;;;;;;18.30;7.07;;;22.30;99.90;;;;;;5112648;28;20110;-79
2022/09/05 05:03:52;;;;;;;24.65;6.88;;;22.40;99.90;;;;;;5109348;28;20488;-81
2022/09/05 05:06:40;;;;;;;21.35;8.10;;;22.40;99.90;;;;;;5117547;28;20067;-78
2022/09/05 05:09:19;;;;;;;18.45;7.05;;;22.40;99.90;;;;;;5112829;28;20551;-80
2022/09/05 05:12:19;;;;;;;17.45;7.57;;;22.40;99.90;;;;;;5117347;28;20028;-80
2022/09/05 05:15:00;;;;;;;;;;;;;;;;;;;;;
2022/09/05 05:17:51;;;;;;;20.80;7.80;;;22.30;99.90;;;;;;5105106;28;20024;-80
2022/09/05 05:20:36;;;;;;;18.80;7.97;;;22.30;99.90;;;;;;5114465;28;20019;-81
2022/09/05 05:23:15;;;;;;;13.23;7.25;;;22.30;99.90;;;;;;5106742;28;20028;-79
2022/09/05 05:25:52;;;;;;;19.75;7.75;;;22.40;99.90;;;;;;5115305;28;20048;-80
2022/09/05 05:28:41;;;;;;;19.15;7.13;;;22.30;99.90;;;;;;5114865;28;20047;-79
2022/09/05 05:32:05;;;;;;;17.52;7.80;;;22.40;99.90;;;;;;5096142;28;20090;-80
2022/09/05 05:34:45;;;;;;;19.63;7.25;;;22.40;99.90;;;;;;5112320;28;20088;-80
2022/09/05 05:37:28;;;;;;;21.38;6.88;;;22.40;99.90;;;;;;5105164;28;20020;-80
2022/09/05 05:40:18;;;;;;;22.75;7.43;;;22.40;99.90;;;;;;5112619;28;20051;-78
2022/09/05 05:42:47;;;;;;;25.48;8.23;;;22.40;99.90;;;;;;5116962;28;20045;-81
2022/09/05 05:46:02;;;;;;;;;;;;;;;;;;;;;
2022/09/05 05:52:27;;;;;;;16.10;7.03;;;22.60;99.90;;;;;;5097378;28;20369;-79
2022/09/05 05:55:39;;;;;;;;;;;;;;;;;;;;;
2022/09/05 05:58:22;;;;;;;22.20;7.20;;;22.70;99.90;;;;;;5110523;28;20454;-79
2022/09/05 06:01:29;;;;;;;20.35;6.68;;;22.70;99.90;;;;;;5120693;28;20032;-80
2022/09/05 06:04:29;;;;;;;14.88;6.60;;;22.70;99.90;;;;;;5116653;28;20427;-78
2022/09/05 06:07:20;;;;;;;26.00;7.38;;;22.80;99.90;;;;;;5114144;28;20092;-80
2022/09/05 06:10:19;;;;;;;14.05;6.22;;;22.80;99.90;;;;;;5081156;28;20051;-78
2022/09/05 06:13:10;;;;;;;16.08;6.10;;;22.90;99.90;;;;;;5119315;28;20047;-79
2022/09/05 06:16:15;;;;;;;13.27;6.45;;;22.90;99.90;;;;;;5117411;28;20046;-80
2022/09/05 06:19:00;;;;;;;16.98;6.25;;;23.00;99.90;;;;;;5116330;28;20028;-80
2022/09/05 06:25:03;;;;;;;24.05;7.63;;;23.00;99.90;;;;;;5108933;28;20118;-79
2022/09/05 06:27:50;;;;;;;24.67;7.20;;;23.00;99.90;;;;;;5108082;28;20063;-80
2022/09/05 06:30:24;;;;;;;14.88;6.32;;;23.10;99.90;;;;;;5119691;28;20514;-80
2022/09/05 06:33:29;;;;;;;21.70;6.45;;;23.20;99.90;;;;;;5115430;28;20056;-79
2022/09/05 06:36:23;;;;;;;22.90;6.68;;;23.30;99.90;;;;;;5110781;28;20015;-79
2022/09/05 06:39:00;;;;;;;19.15;5.80;;;23.30;99.90;;;;;;5116885;28;20020;-78
2022/09/05 06:41:47;;;;;;;16.95;6.75;;;23.40;99.90;;;;;;5117218;28;20163;-80
2022/09/05 06:44:22;;;;;;;16.55;5.60;;;23.40;99.90;;;;;;5118061;28;20020;-78
2022/09/05 06:47:05;;;;;;;21.88;5.82;;;23.60;99.90;;;;;;5117404;28;20470;-79
2022/09/05 06:50:03;;;;;;;21.83;6.25;;;23.70;99.90;;;;;;5118500;28;20039;-79
2022/09/05 06:53:02;;;;;;;18.13;5.32;;;23.90;99.90;;;;;;5116937;28;20097;-81
2022/09/05 06:56:10;;;;;;;;;;;;;;;;;;;;;
2022/09/05 06:59:38;;;;;;;;;;;;;;;;;;;;;
2022/09/05 07:02:30;;;;;;;18.25;5.28;;;24.00;99.90;;;;;;5113073;28;20511;-80
2022/09/05 07:05:29;;;;;;;13.32;5.30;;;24.00;99.90;;;;;;5106799;28;20039;-79
2022/09/05 07:08:29;;;;;;;21.73;5.57;;;24.20;99.90;;;;;;5111370;28;20027;-79
2022/09/05 07:11:20;;;;;;;25.33;4.97;;;24.20;99.90;;;;;;5117782;28;20055;-79
2022/09/05 07:13:58;;;;;;;14.10;5.45;;;24.20;99.90;;;;;;5118809;28;20022;-80
2022/09/05 07:16:44;;;;;;;15.27;5.40;;;24.30;99.90;;;;;;5119327;28;20016;-79
2022/09/05 07:19:23;;;;;;;;;;;;;;;;;;;;;
2022/09/05 07:22:44;;;;;;;;;;;;;;;;;;;;;
2022/09/05 07:25:27;;;;;;;14.05;4.97;;;24.60;99.90;;;;;;5118863;28;20119;-79
2022/09/05 07:28:28;;;;;;;18.38;5.35;;;24.60;99.90;;;;;;5110233;28;20046;-79
2022/09/05 07:31:32;;;;;;;;;;;;;;;;;;;;;
2022/09/05 07:34:21;;;;;;;14.40;4.25;;;24.80;99.90;;;;;;5115757;28;20119;-79
2022/09/05 07:36:55;;;;;;;21.30;5.93;;;25.00;99.90;;;;;;5118737;28;20027;-79
2022/09/05 07:39:36;;;;;;;15.45;4.28;;;25.00;99.90;;;;;;5118563;28;20511;-80
2022/09/05 07:42:07;;;;;;;22.98;5.10;;;25.10;99.90;;;;;;5117580;28;20024;-78
2022/09/05 07:45:05;;;;;;;;;;;;;;;;;;;;;
2022/09/05 07:48:29;;;;;;;14.52;5.30;;;25.10;99.90;;;;;;5109329;28;20039;-79
2022/09/05 07:51:17;;;;;;;10.38;4.07;;;25.10;99.90;;;;;;5035732;28;20474;-81
2022/09/05 07:54:10;;;;;;;18.23;4.72;;;25.10;99.90;;;;;;5107703;28;20032;-81
2022/09/05 07:57:22;;;;;;;19.30;5.63;;;25.00;99.90;;;;;;5111851;28;20015;-80
2022/09/05 08:00:17;;;;;;;16.90;4.53;;;25.00;99.90;;;;;;5104168;28;20093;-79
2022/09/05 08:03:03;;;;;;;17.83;4.40;;;25.00;99.90;;;;;;5117147;28;20047;-80
2022/09/05 08:06:04;;;;;;;20.23;4.93;;;25.00;99.90;;;;;;5115519;28;20032;-79
2022/09/05 08:08:59;;;;;;;12.77;4.47;;;25.00;99.90;;;;;;5115519;28;20133;-80
2022/09/05 08:11:58;;;;;;;;;;;;;;;;;;;;;
2022/09/05 08:14:58;;;;;;;;;;;;;;;;;;;;;
2022/09/05 08:17:26;;;;;;;17.38;4.95;;;25.60;99.90;;;;;;5114537;28;20103;-78
2022/09/05 08:20:26;;;;;;;17.02;4.78;;;25.80;99.90;;;;;;5118042;28;20095;-80
2022/09/05 08:23:37;;;;;;;13.63;4.68;;;25.80;99.90;;;;;;5062587;28;20044;-78
2022/09/05 08:26:35;;;;;;;20.10;5.22;;;25.80;99.90;;;;;;5102705;28;20120;-80
2022/09/05 08:29:39;;;;;;;19.27;4.35;;;25.80;99.90;;;;;;5112943;28;20036;-79
2022/09/05 08:32:08;;;;;;;17.30;4.97;;;25.80;99.90;;;;;;5118121;28;20103;-78
2022/09/05 08:35:13;;;;;;;;;;;;;;;;;;;;;
2022/09/05 08:37:54;;;;;;;;;;;;;;;;;;;;;
2022/09/05 08:40:46;;;;;;;21.15;5.03;;;25.90;99.90;;;;;;5103490;28;20107;-81
2022/09/05 08:43:30;;;;;;;11.70;4.00;;;26.10;99.90;;;;;;5108164;28;20031;-80
2022/09/05 08:46:32;;;;;;;15.13;3.72;;;26.20;99.90;;;;;;5110912;28;20055;-80
2022/09/05 08:49:26;;;;;;;14.75;4.40;;;26.20;99.90;;;;;;5110594;28;20031;-79
2022/09/05 08:52:45;;;;;;;13.65;4.50;;;26.50;99.90;;;;;;5107766;28;20387;-81
2022/09/05 08:55:37;;;;;;;22.70;4.65;;;26.60;99.90;;;;;;5108449;28;20024;-81
2022/09/05 08:58:43;;;;;;;;;;;;;;;;;;;;;
2022/09/05 09:01:51;;;;;;;15.15;4.72;;;26.60;99.90;;;;;;5058979;28;20131;-78
2022/09/05 09:05:34;;;;;;;14.98;4.35;;;26.50;99.90;;;;;;5078454;28;20035;-81
2022/09/05 09:08:18;;;;;;;17.42;4.90;;;26.50;99.90;;;;;;5101888;28;20032;-79
2022/09/05 09:11:10;;;;;;;15.57;4.22;;;26.60;99.90;;;;;;5113694;28;20028;-81
2022/09/05 09:14:29;;;;;;;18.77;4.38;;;26.70;99.90;;;;;;5117518;28;20499;-81
2022/09/05 09:17:28;;;;;;;13.10;4.28;;;26.60;99.90;;;;;;5115748;28;20020;-80
2022/09/05 09:20:38;;;;;;;19.15;4.35;;;26.60;99.90;;;;;;5114121;28;20032;-81
2022/09/05 09:23:28;;;;;;;20.05;4.35;;;26.50;99.90;;;;;;5109561;28;20027;-80
2022/09/05 09:26:37;;;;;;;;;;;;;;;;;;;;;
2022/09/05 09:29:46;;;;;;;14.85;4.18;;;26.40;99.90;;;;;;5118352;28;20020;-79
2022/09/05 09:32:40;;;;;;;11.65;3.95;;;26.40;99.90;;;;;;5115854;28;20039;-80
2022/09/05 09:36:05;;;;;;;;;;;;;;;;;;;;;
2022/09/05 09:38:36;;;;;;;14.98;4.15;;;26.30;99.90;;;;;;5109814;28;20065;-80
2022/09/05 09:41:32;;;;;;;19.45;4.43;;;26.30;99.90;;;;;;5119494;28;20027;-80
2022/09/05 09:45:03;;;;;;;15.93;3.83;;;26.30;99.90;;;;;;5119753;28;20560;-79
2022/09/05 09:48:14;;;;;;;19.25;3.75;;;26.40;99.90;;;;;;5057714;28;20044;-80
2022/09/05 09:51:03;;;;;;;12.77;3.80;;;26.40;99.90;;;;;;5078158;28;20031;-81
2022/09/05 09:54:24;;;;;;;13.80;4.30;;;26.70;99.90;;;;;;5110468;28;20032;-80
2022/09/05 09:57:55;;;;;;;14.40;4.43;;;27.00;99.90;;;;;;5049390;28;20551;-81
2022/09/05 10:00:33;;;;;;;14.70;4.03;;;27.40;99.90;;;;;;5040967;28;20036;-78
2022/09/05 10:03:39;;;;;;;11.88;3.42;;;27.50;99.90;;;;;;5107756;28;20024;-79
2022/09/05 10:06:50;;;;;;;16.00;4.03;;;27.60;99.90;;;;;;5119499;28;20463;-79
2022/09/05 10:09:46;;;;;;;;;;;;;;;;;;;;;
2022/09/05 10:13:06;;;;;;;12.80;3.90;;;28.00;99.90;;;;;;5118224;28;20145;-79
2022/09/05 10:15:56;;;;;;;;;;;;;;;;;;;;;
2022/09/05 10:18:58;;;;;;;;;;;;;;;;;;;;;
2022/09/05 10:21:58;;;;;;;19.60;3.95;;;28.30;99.90;;;;;;5118712;28;19903;-80
2022/09/05 10:25:14;;;;;;;9.07;3.70;;;28.50;99.90;;;;;;5111057;28;20098;-80
2022/09/05 10:28:16;;;;;;;16.63;3.50;;;28.60;99.90;;;;;;5103265;28;20039;-79
2022/09/05 10:33:44;;;;;;;21.08;4.00;;;28.80;99.90;;;;;;5119903;28;20107;-80
2022/09/05 10:36:39;;;;;;;17.00;4.22;;;28.90;99.90;;;;;;5119184;28;20016;-80
2022/09/05 10:39:58;;;;;;;19.50;3.55;;;29.00;99.90;;;;;;5117692;28;20027;-79
2022/09/05 10:42:57;;;;;;;15.80;3.40;;;29.00;99.90;;;;;;5115820;28;20114;-79
2022/09/05 10:46:05;;;;;;;;;;;;;;;;;;;;;
2022/09/05 10:49:35;;;;;;;13.82;3.22;;;29.10;99.90;;;;;;5112365;28;20039;-80
2022/09/05 10:58:29;;;;;;;;;;;;;;;;;;;;;
2022/09/05 11:01:56;;;;;;;12.43;3.95;;;29.70;99.90;;;;;;5119457;28;20102;-79
2022/09/05 11:08:22;;;;;;;14.73;3.65;;;29.80;99.90;;;;;;5096362;28;20035;-80
2022/09/05 11:12:07;;;;;;;15.25;3.03;;;29.80;99.90;;;;;;5118137;28;20077;-79
2022/09/05 11:18:39;;;;;;;;;;;;;;;;;;;;;
2022/09/05 11:22:07;;;;;;;15.13;3.50;;;30.10;99.90;;;;;;5116232;28;20076;-80
2022/09/05 11:25:39;;;;;;;16.35;3.25;;;30.20;99.90;;;;;;5117886;28;20031;-80
2022/09/05 11:28:52;;;;;;;16.67;3.15;;;30.30;99.90;;;;;;5114723;28;20026;-81
2022/09/05 11:32:07;;;;;;;;;;;;;;;;;;;;;
2022/09/05 11:35:05;;;;;;;11.98;2.97;;;30.30;99.90;;;;;;5118761;28;20123;-80
2022/09/05 11:38:13;;;;;;;;;;;;;;;;;;;;;
2022/09/05 11:52:28;;;;;;;;;;;;;;;;;;;;;
2022/09/05 11:59:14;;;;;;;8.52;3.05;;;30.90;99.90;;;;;;5027173;28;20075;-80
2022/09/05 12:02:41;;;;;;;;;;;;;;;;;;;;;
2022/09/05 12:09:32;;;;;;;;;;;;;;;;;;;;;
2022/09/05 12:12:20;;;;;;;;;;;;;;;;;;;;;
2022/09/05 12:15:19;;;;;;;13.13;2.67;;;31.10;99.90;;;;;;5046562;28;20112;-78
2022/09/05 12:18:32;;;;;;;10.43;2.67;;;31.00;99.90;;;;;;5105955;28;20526;-80
2022/09/05 12:24:47;;;;;;;13.50;3.05;;;31.00;99.90;;;;;;5104824;28;20030;-79
2022/09/05 12:37:35;;;;;;;;;;;;;;;;;;;;;
2022/09/05 12:40:53;;;;;;;10.55;2.63;;;31.40;99.90;;;;;;5117126;28;20079;-80
2022/09/05 12:44:20;;;;;;;11.57;2.60;;;31.30;99.90;;;;;;5104055;28;20492;-81
2022/09/05 12:47:23;;;;;;;13.93;2.90;;;31.30;99.90;;;;;;5063739;28;20070;-80
2022/09/05 12:53:46;;;;;;;14.65;2.75;;;31.40;99.90;;;;;;5054364;28;20389;-80
2022/09/05 12:59:27;;;;;;;12.65;2.75;;;31.50;99.90;;;;;;5082953;28;20035;-79
2022/09/05 13:05:25;;;;;;;;;;;;;;;;;;;;;
2022/09/05 13:08:08;;;;;;;;;;;;;;;;;;;;;
2022/09/05 13:11:00;;;;;;;11.90;2.55;;;31.60;99.50;;;;;;5117503;28;20555;-81
2022/09/05 13:13:59;;;;;;;9.55;2.50;;;31.60;99.70;;;;;;5106988;28;20031;-80
2022/09/05 13:17:16;;;;;;;9.60;2.17;;;31.70;98.70;;;;;;5098750;28;20019;-78
2022/09/05 13:20:14;;;;;;;;;;;;;;;;;;;;;
2022/09/05 13:29:57;;;;;;;;;;;;;;;;;;;;;
2022/09/05 13:33:03;;;;;;;15.93;2.55;;;31.70;98.50;;;;;;5088679;28;20040;-81
2022/09/05 13:43:01;;;;;;;15.90;2.95;;;31.70;99.80;;;;;;5102335;28;20028;-80
2022/09/05 13:45:33;;;;;;;12.32;3.20;;;31.70;98.70;;;;;;5116246;28;20057;-81
2022/09/05 13:48:40;;;;;;;;;;;;;;;;;;;;;
2022/09/05 13:54:59;;;;;;;24.77;3.15;;;31.80;99.50;;;;;;5036755;28;20038;-81
2022/09/05 13:58:22;;;;;;;;;;;;;;;;;;;;;
2022/09/05 14:01:51;;;;;;;13.27;2.47;;;31.80;96.90;;;;;;5116637;28;20448;-81
2022/09/05 14:08:32;;;;;;;13.88;2.60;;;32.00;98.90;;;;;;5116618;28;20093;-81
2022/09/05 14:22:22;;;;;;;;;;;;;;;;;;;;;
2022/09/05 14:32:18;;;;;;;16.25;3.60;;;32.10;99.90;;;;;;4914058;29;20039;-80
2022/09/05 14:46:00;;;;;;;17.30;3.40;;;32.60;99.90;;;;;;5010646;28;20553;-79
2022/09/05 14:49:19;;;;;;;;;;;;;;;;;;;;;
2022/09/05 14:55:23;;;;;;;22.05;2.97;;;33.30;99.90;;;;;;4976645;28;20486;-79
2022/09/05 15:02:15;;;;;;;16.95;3.38;;;34.40;98.30;;;;;;5053333;28;20024;-81
2022/09/05 15:05:34;;;;;;;19.33;3.63;;;35.30;97.30;;;;;;5060201;28;20108;-80
2022/09/05 15:22:54;;;;;;;15.32;3.00;;;36.40;94.10;;;;;;4988383;28;20029;-81
2022/09/05 15:36:33;;;;;;;15.95;2.80;;;36.50;93.60;;;;;;4997421;28;20049;-78
2022/09/05 15:47:08;;;;;;;;;;;;;;;;;;;;;
2022/09/05 16:07:43;;;;;;;18.35;3.33;;;29.90;99.90;;;;;;4829168;29;20614;-79
2022/09/05 16:17:39;;;;;;;;;;;;;;;;;;;;;
2022/09/05 16:21:07;;;;;;;;;;;;;;;;;;;;;
2022/09/05 16:27:18;;;;;;;13.07;3.03;;;28.60;99.90;;;;;;4935401;29;20040;-81
2022/09/05 16:30:23;;;;;;;;;;;;;;;;;;;;;
2022/09/05 16:33:38;;;;;;;17.05;3.50;;;28.40;99.90;;;;;;4941818;28;20527;-81
2022/09/05 16:37:15;;;;;;;12.02;3.10;;;28.30;99.90;;;;;;5104634;27;20381;-79
2022/09/05 16:44:12;;;;;;;;;;;;;;;;;;;;;
2022/09/05 16:47:09;;;;;;;8.80;2.57;;;28.10;99.90;;;;;;5113244;28;20102;-80
2022/09/05 16:50:08;;;;;;;;;;;;;;;;;;;;;
2022/09/05 16:52:53;;;;;;;;;;;;;;;;;;;;;
2022/09/05 16:55:50;;;;;;;17.27;2.67;;;27.80;99.90;;;;;;5110654;28;20034;-79
2022/09/05 17:02:07;;;;;;;10.93;3.17;;;27.70;99.90;;;;;;5109977;28;20388;-79
2022/09/05 17:04:48;;;;;;;29.23;4.05;;;27.60;99.90;;;;;;5094143;28;20024;-81
2022/09/05 17:07:33;;;;;;;26.30;3.60;;;27.10;99.90;;;;;;5097249;28;20046;-81
2022/09/05 17:10:18;;;;;;;23.92;4.38;;;26.50;99.90;;;;;;5096616;28;20082;-80
2022/09/05 17:12:54;;;;;;;16.15;3.72;;;26.10;99.90;;;;;;5114270;28;20095;-78
2022/09/05 17:15:50;;;;;;;19.50;3.60;;;25.80;99.90;;;;;;5102521;28;20496;-79
2022/09/05 17:18:19;;;;;;;17.65;3.67;;;25.70;99.90;;;;;;5102546;28;20039;-79
2022/09/05 17:20:49;;;;;;;18.73;3.80;;;25.50;99.90;;;;;;5112146;28;20016;-80
2022/09/05 17:23:28;;;;;;;21.88;3.58;;;25.30;99.90;;;;;;5110315;28;20107;-80
2022/09/05 17:26:05;;;;;;;21.88;3.28;;;25.20;99.90;;;;;;5109768;28;20036;-79
2022/09/05 17:28:49;;;;;;;14.88;4.03;;;25.20;99.90;;;;;;5107869;28;20031;-80
2022/09/05 17:31:36;;;;;;;18.05;3.97;;;25.20;99.90;;;;;;5096603;28;20029;-78
2022/09/05 17:34:14;;;;;;;24.73;4.22;;;25.20;99.90;;;;;;5096875;28;20089;-80
2022/09/05 17:36:49;;;;;;;17.35;4.10;;;25.10;99.90;;;;;;5111909;28;20410;-79
2022/09/05 17:39:50;;;;;;;24.45;5.57;;;25.00;99.90;;;;;;5100474;28;20416;-80
2022/09/05 17:42:28;;;;;;;;;;;25.00;99.90;;;;;;5101689;28;20017;-79
2022/09/05 17:45:21;;;;;;;17.05;3.85;;;24.90;99.90;;;;;;5123812;28;20401;-80
2022/09/05 17:47:56;;;;;;;20.73;4.40;;;24.80;99.90;;;;;;5091339;28;20020;-79
2022/09/05 17:50:25;;;;;;;19.58;4.28;;;24.60;99.90;;;;;;5096890;28;20035;-79
2022/09/05 17:52:58;;;;;;;23.08;5.07;;;24.60;99.90;;;;;;5097530;28;20020;-79
2022/09/05 17:55:41;;;;;;;20.27;4.47;;;24.50;99.90;;;;;;5090566;28;20021;-79
2022/09/05 17:58:31;;;;;;;19.70;4.13;;;24.40;99.90;;;;;;5089717;28;20523;-79
2022/09/05 18:00:57;;;;;;;30.10;6.03;;;24.20;99.90;;;;;;5097026;28;20032;-77
2022/09/05 18:03:46;;;;;;;18.20;4.07;;;24.20;99.90;;;;;;5099317;28;20564;-80
2022/09/05 18:06:16;;;;;;;18.00;4.40;;;24.00;99.90;;;;;;5078802;28;20032;-78
2022/09/05 18:08:48;;;;;;;17.00;4.93;;;23.90;99.90;;;;;;5086755;28;20504;-80
2022/09/05 18:11:38;;;;;;;19.90;4.80;;;23.90;99.90;;;;;;5082387;28;20020;-79
2022/09/05 18:14:10;;;;;;;27.60;4.60;;;23.80;99.90;;;;;;5086552;28;20048;-78
2022/09/05 18:16:43;;;;;;;16.30;4.30;;;23.80;99.90;;;;;;5083234;28;20033;-77
2022/09/05 18:19:12;;;;;;;23.15;4.13;;;23.80;99.90;;;;;;5089513;28;20028;-77
2022/09/05 18:22:03;;;;;;;15.18;4.40;;;23.80;99.90;;;;;;5088751;28;20024;-79
2022/09/05 18:24:43;;;;;;;17.45;4.88;;;23.80;99.90;;;;;;5096257;28;20391;-78
2022/09/05 18:27:41;;;;;;;21.70;5.35;;;23.80;99.90;;;;;;5086465;28;20039;-78
2022/09/05 18:30:29;;;;;;;26.02;4.97;;;23.60;99.90;;;;;;5092112;28;20036;-78
2022/09/05 18:32:55;;;;;;;13.75;4.28;;;23.60;99.90;;;;;;5095352;28;20048;-78
2022/09/05 18:35:31;;;;;;;21.88;5.13;;;23.70;99.90;;;;;;5097867;28;20108;-78
2022/09/05 18:38:01;;;;;;;20.88;5.28;;;23.80;99.90;;;;;;5094801;28;20023;-78
2022/09/05 18:40:57;;;;;;;13.77;4.15;;;23.80;99.90;;;;;;5097953;28;20012;-78
2022/09/05 18:43:57;;;;;;;22.30;4.70;;;23.80;99.90;;;;;;5093069;28;20024;-77
2022/09/05 18:46:46;;;;;;;23.85;5.35;;;23.90;99.90;;;;;;5093510;28;20097;-79
2022/09/05 18:49:15;;;;;;;22.15;5.03;;;23.90;99.90;;;;;;5094754;28;20472;-79
2022/09/05 18:52:06;;;;;;;18.95;4.75;;;23.90;99.90;;;;;;5095696;28;20035;-76
2022/09/05 18:54:33;;;;;;;19.63;5.65;;;23.80;99.90;;;;;;5096233;28;20067;-78
2022/09/05 18:57:00;;;;;;;18.80;4.70;;;23.90;99.90;;;;;;5097500;28;20039;-78
2022/09/05 18:59:32;;;;;;;20.67;4.65;;;23.90;99.90;;;;;;5090715;28;20029;-78
2022/09/05 19:02:07;;;;;;;15.27;5.07;;;23.90;99.90;;;;;;5080817;28;20012;-79
2022/09/05 19:04:39;;;;;;;15.85;4.47;;;23.80;99.90;;;;;;5082068;28;20027;-78
2022/09/05 19:07:16;;;;;;;23.27;4.68;;;23.80;99.90;;;;;;5094003;28;20099;-78
2022/09/05 19:10:03;;;;;;;14.65;4.57;;;23.90;99.90;;;;;;5089927;28;20377;-77
2022/09/05 19:12:30;;;;;;;14.05;5.10;;;23.80;99.90;;;;;;5090215;28;20020;-78
2022/09/05 19:15:12;;;;;;;19.55;4.65;;;23.70;99.90;;;;;;5085607;28;20021;-77
2022/09/05 19:17:43;;;;;;;14.40;4.40;;;23.80;99.90;;;;;;5090196;28;20013;-77
2022/09/05 19:20:16;;;;;;;16.73;4.72;;;23.80;99.90;;;;;;5098118;28;20033;-79
2022/09/05 19:22:55;;;;;;;23.33;5.13;;;23.70;99.90;;;;;;5094585;28;20399;-78
2022/09/05 19:25:41;;;;;;;22.33;6.07;;;23.70;99.90;;;;;;5094993;28;20028;-78
2022/09/05 19:28:32;;;;;;;19.50;4.85;;;23.70;99.90;;;;;;5090335;28;20027;-77
2022/09/05 19:31:16;;;;;;;20.83;4.93;;;23.60;99.90;;;;;;5086359;28;20029;-78
2022/09/05 19:33:43;;;;;;;19.15;5.10;;;23.60;99.90;;;;;;5085364;28;20026;-78
2022/09/05 19:36:45;;;;;;;19.98;4.53;;;23.60;99.90;;;;;;5091724;28;20044;-79
2022/09/05 19:39:14;;;;;;;14.43;4.07;;;23.60;99.90;;;;;;5072776;28;20028;-76
2022/09/05 19:41:44;;;;;;;13.00;4.50;;;23.60;99.90;;;;;;5093614;28;20111;-77
2022/09/05 19:44:32;;;;;;;16.13;4.70;;;23.60;99.90;;;;;;5095301;28;20047;-78
2022/09/05 19:46:59;;;;;;;14.52;3.67;;;23.50;99.90;;;;;;5087791;28;20024;-78
2022/09/05 19:49:25;;;;;;;15.27;4.28;;;23.50;99.90;;;;;;5081679;28;20024;-78
2022/09/05 19:51:52;;;;;;;14.18;4.20;;;23.50;99.90;;;;;;5086545;28;20016;-78
2022/09/05 19:54:29;;;;;;;15.35;4.38;;;23.50;99.90;;;;;;5085303;28;20032;-78
2022/09/05 19:57:00;;;;;;;19.15;4.47;;;23.50;99.90;;;;;;5081127;28;20023;-80
2022/09/05 19:59:37;;;;;;;14.85;4.38;;;23.50;99.90;;;;;;5086092;28;20356;-78
2022/09/05 20:02:22;;;;;;;16.58;4.43;;;23.40;99.90;;;;;;5082940;28;20095;-77